createdAt,value
2019-02-24T00:04:42.649Z,0
2019-02-24T00:09:42.580Z,0
2019-02-24T00:14:42.385Z,0
2019-02-24T00:19:42.321Z,0
2019-02-24T00:24:42.528Z,0
2019-02-24T00:29:42.414Z,0
2019-02-24T00:34:42.486Z,0
2019-02-24T00:39:42.486Z,0
2019-02-24T00:44:42.301Z,0
2019-02-24T00:49:42.598Z,0
2019-02-24T00:54:42.400Z,0
2019-02-24T00:59:42.554Z,0
2019-02-24T01:04:42.354Z,0
2019-02-24T01:09:42.471Z,0
2019-02-24T01:14:42.213Z,0
2019-02-24T01:19:42.383Z,0
2019-02-24T01:24:42.237Z,0
2019-02-24T01:29:42.238Z,0
2019-02-24T01:34:42.375Z,0
2019-02-24T01:39:42.502Z,0
2019-02-24T01:44:42.228Z,0
2019-02-24T01:49:42.490Z,0
2019-02-24T01:54:42.417Z,0
2019-02-24T01:59:42.397Z,0
2019-02-24T02:04:42.463Z,0
2019-02-24T02:09:42.342Z,0
2019-02-24T02:14:42.392Z,0
2019-02-24T02:19:42.215Z,0
2019-02-24T02:24:42.436Z,0
2019-02-24T02:29:42.187Z,0
2019-02-24T02:34:42.336Z,0
2019-02-24T02:39:42.394Z,0
2019-02-24T02:44:42.308Z,0
2019-02-24T02:49:42.365Z,0
2019-02-24T02:54:42.411Z,0
2019-02-24T02:59:42.110Z,0
2019-02-24T03:04:42.379Z,0
2019-02-24T03:09:42.351Z,0
2019-02-24T03:14:42.056Z,0
2019-02-24T03:19:42.078Z,0
2019-02-24T03:24:42.129Z,0
2019-02-24T03:29:42.248Z,0
2019-02-24T03:34:42.290Z,0
2019-02-24T03:39:42.025Z,0
2019-02-24T03:44:42.125Z,0
2019-02-24T03:49:42.167Z,0
2019-02-24T03:54:42.131Z,0
2019-02-24T03:59:42.255Z,0
2019-02-24T04:04:42.337Z,0
2019-02-24T04:09:42.197Z,0
2019-02-24T04:14:42.144Z,0
2019-02-24T04:19:42.233Z,0
2019-02-24T04:24:42.282Z,0
2019-02-24T04:29:42.173Z,0
2019-02-24T04:34:42.032Z,0
2019-02-24T04:39:42.076Z,0
2019-02-24T04:44:41.984Z,0
2019-02-24T04:49:42.077Z,0
2019-02-24T04:54:42.111Z,0
2019-02-24T04:59:42.151Z,0
2019-02-24T05:04:42.025Z,0
2019-02-24T05:09:42.190Z,0
2019-02-24T05:14:41.840Z,0
2019-02-24T05:19:41.922Z,0
2019-02-24T05:24:41.970Z,0
2019-02-24T05:29:45.836Z,0
2019-02-24T05:34:42.166Z,0
2019-02-24T05:39:42.092Z,0
2019-02-24T05:44:42.003Z,0
2019-02-24T05:49:42.054Z,0
2019-02-24T05:54:41.791Z,0
2019-02-24T05:59:41.805Z,0
2019-02-24T06:04:41.978Z,0
2019-02-24T06:09:41.973Z,0
2019-02-24T06:14:41.885Z,0
2019-02-24T06:19:41.878Z,0
2019-02-24T06:24:41.910Z,0
2019-02-24T06:29:41.746Z,0
2019-02-24T06:34:41.988Z,0
2019-02-24T06:39:41.913Z,0.8
2019-02-24T06:44:41.919Z,1.7
2019-02-24T06:49:41.935Z,2.5
2019-02-24T06:54:41.955Z,3.3
2019-02-24T06:59:41.895Z,5
2019-02-24T07:04:41.802Z,5.8
2019-02-24T07:09:42.039Z,7.5
2019-02-24T07:14:41.711Z,8.3
2019-02-24T07:19:41.720Z,9.2
2019-02-24T07:24:41.796Z,10
2019-02-24T07:29:41.941Z,11.7
2019-02-24T07:34:41.661Z,13.3
2019-02-24T07:39:41.965Z,14.2
2019-02-24T07:44:41.825Z,15.8
2019-02-24T07:49:41.846Z,17.5
2019-02-24T07:54:41.626Z,18.3
2019-02-24T07:59:41.675Z,20
2019-02-24T08:04:41.672Z,21.7
2019-02-24T08:09:41.897Z,23.3
2019-02-24T08:14:41.575Z,24.2
2019-02-24T08:19:41.855Z,25.8
2019-02-24T08:24:41.651Z,27.5
2019-02-24T08:29:41.589Z,29.2
2019-02-24T08:34:41.623Z,30.8
2019-02-24T08:39:41.616Z,31.7
2019-02-24T08:44:41.859Z,36.7
2019-02-24T08:49:41.841Z,47.5
2019-02-24T08:54:41.894Z,49.2
2019-02-24T08:59:41.760Z,39.2
2019-02-24T09:04:41.693Z,41.7
2019-02-24T09:09:41.650Z,61.7
2019-02-24T09:14:41.624Z,40.8
2019-02-24T09:19:41.680Z,35.8
2019-02-24T09:24:41.537Z,35.8
2019-02-24T09:29:41.703Z,35.8
2019-02-24T09:34:41.778Z,35.8
2019-02-24T09:39:41.666Z,36.7
2019-02-24T09:44:41.465Z,36.7
2019-02-24T09:49:41.771Z,36.7
2019-02-24T09:54:41.513Z,36.7
2019-02-24T09:59:41.575Z,36.7
2019-02-24T10:04:41.496Z,36.7
2019-02-24T10:09:41.739Z,36.7
2019-02-24T10:14:41.677Z,37.5
2019-02-24T10:19:41.746Z,37.5
2019-02-24T10:24:41.517Z,38.3
2019-02-24T10:29:41.393Z,38.3
2019-02-24T10:34:41.435Z,38.3
2019-02-24T10:39:41.659Z,39.2
2019-02-24T10:44:41.385Z,39.2
2019-02-24T10:49:41.647Z,39.2
2019-02-24T10:54:41.447Z,39.2
2019-02-24T10:59:41.436Z,39.2
2019-02-24T11:04:41.610Z,39.2
2019-02-24T11:09:41.428Z,39.2
2019-02-24T11:14:41.646Z,40
2019-02-24T11:19:41.541Z,41.7
2019-02-24T11:24:41.323Z,44.2
2019-02-24T11:29:41.594Z,45.8
2019-02-24T11:34:41.483Z,48.3
2019-02-24T11:39:41.581Z,50.8
2019-02-24T11:44:41.286Z,55.8
2019-02-24T11:49:41.322Z,66.7
2019-02-24T11:54:41.437Z,83.3
2019-02-24T11:59:41.385Z,95
2019-02-24T12:04:41.474Z,105
2019-02-24T12:09:41.369Z,114.2
2019-02-24T12:14:41.369Z,121.7
2019-02-24T12:19:41.470Z,128.3
2019-02-24T12:24:41.469Z,160.8
2019-02-24T12:29:41.474Z,168.3
2019-02-24T12:34:41.480Z,176.7
2019-02-24T12:39:41.336Z,190.8
2019-02-24T12:44:41.544Z,194.2
2019-02-24T12:49:41.264Z,203.3
2019-02-24T12:54:41.275Z,212.5
2019-02-24T12:59:41.231Z,182.5
2019-02-24T13:04:41.182Z,189.2
2019-02-24T13:09:41.226Z,171.7
2019-02-24T13:14:41.378Z,205.8
2019-02-24T13:19:41.363Z,190
2019-02-24T13:24:41.171Z,162.5
2019-02-24T13:29:41.417Z,79.2
2019-02-24T13:34:41.316Z,71.7
2019-02-24T13:39:41.102Z,67.5
2019-02-24T13:44:41.192Z,64.2
2019-02-24T13:49:43.000Z,64.2
2019-02-24T13:54:41.351Z,63.3
2019-02-24T13:59:41.320Z,62.5
2019-02-24T14:04:41.198Z,60.8
2019-02-24T14:09:41.243Z,60
2019-02-24T14:14:48.857Z,59.2
2019-02-24T14:19:41.058Z,57.5
2019-02-24T14:24:41.368Z,56.7
2019-02-24T14:29:41.202Z,55.8
2019-02-24T14:34:41.057Z,56.7
2019-02-24T14:39:41.023Z,55.8
2019-02-24T14:44:41.202Z,59.2
2019-02-24T14:49:41.291Z,60.8
2019-02-24T14:54:41.012Z,59.2
2019-02-24T14:59:41.072Z,58.3
2019-02-24T15:04:41.078Z,62.5
2019-02-24T15:09:41.060Z,62.5
2019-02-24T15:14:41.203Z,63.3
2019-02-24T15:19:41.036Z,62.5
2019-02-24T15:24:41.204Z,54.2
2019-02-24T15:29:41.135Z,50
2019-02-24T15:34:41.114Z,50
2019-02-24T15:39:41.136Z,48.3
2019-02-24T15:44:41.209Z,41.7
2019-02-24T15:49:40.907Z,40
2019-02-24T15:54:40.934Z,39.2
2019-02-24T15:59:40.935Z,31.7
2019-02-24T16:04:41.089Z,30
2019-02-24T16:09:41.209Z,28.3
2019-02-24T16:14:41.131Z,29.2
2019-02-24T16:19:41.063Z,28.3
2019-02-24T16:24:41.202Z,26.7
2019-02-24T16:29:41.142Z,24.2
2019-02-24T16:34:40.851Z,21.7
2019-02-24T16:39:41.061Z,19.2
2019-02-24T16:44:40.983Z,15.8
2019-02-24T16:49:40.984Z,13.3
2019-02-24T16:54:41.018Z,10.8
2019-02-24T16:59:41.024Z,7.5
2019-02-24T17:04:40.889Z,5
2019-02-24T17:09:40.886Z,2.5
2019-02-24T17:14:40.817Z,1.7
2019-02-24T17:19:41.040Z,0
2019-02-24T17:24:41.063Z,0
2019-02-24T17:29:41.077Z,0
2019-02-24T17:34:40.978Z,0
2019-02-24T17:39:41.081Z,0
2019-02-24T17:44:40.960Z,0
2019-02-24T17:49:40.957Z,0
2019-02-24T17:54:41.089Z,0
2019-02-24T17:59:41.070Z,0
2019-02-24T18:04:40.840Z,0
2019-02-24T18:09:40.911Z,0
2019-02-24T18:14:40.701Z,0
2019-02-24T18:19:41.021Z,0
2019-02-24T18:40:15.101Z,0
2019-02-24T18:45:29.285Z,0
2019-02-24T18:50:01.294Z,0
2019-02-24T18:55:01.689Z,0
2019-02-24T19:00:02.003Z,0
2019-02-24T19:05:01.333Z,0
2019-02-24T19:10:01.156Z,0
2019-02-24T19:15:01.338Z,0
2019-02-24T19:20:00.949Z,0
2019-02-24T19:25:01.303Z,0
2019-02-24T19:30:01.515Z,0
2019-02-24T19:35:01.293Z,0
2019-02-24T19:41:32.470Z,0
2019-02-24T19:46:24.655Z,0
2019-02-24T19:50:01.559Z,0
2019-02-24T19:55:01.722Z,0
2019-02-24T20:00:01.247Z,0
2019-02-24T20:05:01.182Z,0
2019-02-24T20:30:31.079Z,0
2019-02-24T20:35:01.054Z,0
2019-02-24T20:40:01.526Z,0
2019-02-24T20:45:01.210Z,0
2019-02-24T20:50:01.377Z,0
2019-02-24T21:15:10.877Z,0
2019-02-24T21:20:01.245Z,0
2019-02-24T21:25:01.389Z,0
2019-02-24T21:30:01.206Z,0
2019-02-24T21:35:01.167Z,0
2019-02-24T21:40:01.259Z,0
2019-02-24T21:45:00.992Z,0
2019-02-24T21:50:01.153Z,0
2019-02-24T21:55:01.381Z,0
2019-02-24T22:00:01.357Z,0
2019-02-24T22:05:00.923Z,0
2019-02-24T22:10:01.159Z,0
2019-02-24T22:15:01.195Z,0
2019-02-24T22:20:01.053Z,0
2019-02-24T22:25:01.147Z,0
2019-02-24T22:30:01.332Z,0
2019-02-24T22:35:01.015Z,0
2019-02-24T22:40:01.553Z,0
2019-02-24T22:45:01.636Z,0
2019-02-24T22:50:01.372Z,0
2019-02-24T22:55:01.305Z,0
2019-02-24T23:00:01.286Z,0
2019-02-24T23:05:01.260Z,0
2019-02-24T23:10:00.963Z,0
2019-02-24T23:15:01.171Z,0
2019-02-24T23:20:01.443Z,0
2019-02-24T23:25:01.139Z,0
2019-02-24T23:30:01.194Z,0
2019-02-24T23:35:19.279Z,0
2019-02-24T23:55:05.662Z,0
